sensor_id;sensor_type;location;lat;lon;timestamp;temperature;humidity
20560;DHT22;10438;51.454;6.718;2023-08-01T00:00:56;16.40;99.90
20560;DHT22;10438;51.454;6.718;2023-08-01T00:03:23;16.40;99.90
20560;DHT22;10438;51.454;6.718;2023-08-01T00:05:48;16.40;99.90
20560;DHT22;10438;51.454;6.718;2023-08-01T00:08:14;16.40;99.90
20560;DHT22;10438;51.454;6.718;2023-08-01T00:10:40;16.30;99.90
20560;DHT22;10438;51.454;6.718;2023-08-01T00:13:06;16.30;99.90
20560;DHT22;10438;51.454;6.718;2023-08-01T00:15:32;16.40;99.90
20560;DHT22;10438;51.454;6.718;2023-08-01T00:17:57;16.40;99.90
20560;DHT22;10438;51.454;6.718;2023-08-01T00:20:23;16.30;99.90
20560;DHT22;10438;51.454;6.718;2023-08-01T00:22:48;16.40;99.90
20560;DHT22;10438;51.454;6.718;2023-08-01T00:25:14;16.40;99.90
20560;DHT22;10438;51.454;6.718;2023-08-01T00:27:40;16.40;99.90
20560;DHT22;10438;51.454;6.718;2023-08-01T00:30:06;16.30;99.90
20560;DHT22;10438;51.454;6.718;2023-08-01T00:32:32;16.40;99.90
20560;DHT22;10438;51.454;6.718;2023-08-01T00:34:57;16.40;99.90
20560;DHT22;10438;51.454;6.718;2023-08-01T00:37:23;16.40;99.90
20560;DHT22;10438;51.454;6.718;2023-08-01T00:39:49;16.40;99.90
20560;DHT22;10438;51.454;6.718;2023-08-01T00:42:15;16.40;99.90
20560;DHT22;10438;51.454;6.718;2023-08-01T00:44:41;16.40;99.90
20560;DHT22;10438;51.454;6.718;2023-08-01T00:47:06;16.40;99.90
20560;DHT22;10438;51.454;6.718;2023-08-01T00:49:32;16.40;99.90
20560;DHT22;10438;51.454;6.718;2023-08-01T00:51:58;16.40;99.90
20560;DHT22;10438;51.454;6.718;2023-08-01T00:54:24;16.40;99.90
20560;DHT22;10438;51.454;6.718;2023-08-01T00:56:50;16.40;99.90
20560;DHT22;10438;51.454;6.718;2023-08-01T00:59:16;16.40;99.90
20560;DHT22;10438;51.454;6.718;2023-08-01T01:01:41;16.40;99.90
20560;DHT22;10438;51.454;6.718;2023-08-01T01:04:08;16.40;99.90
20560;DHT22;10438;51.454;6.718;2023-08-01T01:06:51;16.40;99.90
20560;DHT22;10438;51.454;6.718;2023-08-01T01:09:19;16.40;99.90
20560;DHT22;10438;51.454;6.718;2023-08-01T01:11:46;16.40;99.90
20560;DHT22;10438;51.454;6.718;2023-08-01T01:14:11;16.50;99.90
20560;DHT22;10438;51.454;6.718;2023-08-01T01:33:27;16.40;99.90
20560;DHT22;10438;51.454;6.718;2023-08-01T01:35:54;16.30;99.90
20560;DHT22;10438;51.454;6.718;2023-08-01T01:38:19;16.10;99.90
20560;DHT22;10438;51.454;6.718;2023-08-01T01:40:45;16.00;99.90
20560;DHT22;10438;51.454;6.718;2023-08-01T01:43:10;15.80;99.90
20560;DHT22;10438;51.454;6.718;2023-08-01T01:45:36;15.70;99.90
20560;DHT22;10438;51.454;6.718;2023-08-01T01:48:01;15.60;99.90
20560;DHT22;10438;51.454;6.718;2023-08-01T01:50:27;15.60;99.90
20560;DHT22;10438;51.454;6.718;2023-08-01T01:52:52;15.50;99.90
20560;DHT22;10438;51.454;6.718;2023-08-01T01:55:18;15.50;99.90
20560;DHT22;10438;51.454;6.718;2023-08-01T01:57:43;15.50;99.90
20560;DHT22;10438;51.454;6.718;2023-08-01T02:00:09;15.60;99.90
20560;DHT22;10438;51.454;6.718;2023-08-01T02:02:36;15.60;99.90
20560;DHT22;10438;51.454;6.718;2023-08-01T02:05:01;15.60;99.90
20560;DHT22;10438;51.454;6.718;2023-08-01T02:07:29;15.70;99.90
20560;DHT22;10438;51.454;6.718;2023-08-01T02:09:54;15.70;99.90
20560;DHT22;10438;51.454;6.718;2023-08-01T02:12:20;15.70;99.90
20560;DHT22;10438;51.454;6.718;2023-08-01T02:14:45;15.80;99.90
20560;DHT22;10438;51.454;6.718;2023-08-01T02:17:11;15.80;99.90
20560;DHT22;10438;51.454;6.718;2023-08-01T02:19:36;15.80;99.90
20560;DHT22;10438;51.454;6.718;2023-08-01T02:22:02;15.80;99.90
20560;DHT22;10438;51.454;6.718;2023-08-01T02:24:27;15.80;99.90
20560;DHT22;10438;51.454;6.718;2023-08-01T02:26:53;15.80;99.90
20560;DHT22;10438;51.454;6.718;2023-08-01T02:29:19;15.80;99.90
20560;DHT22;10438;51.454;6.718;2023-08-01T02:31:44;15.80;99.90
20560;DHT22;10438;51.454;6.718;2023-08-01T02:34:10;15.80;99.90
20560;DHT22;10438;51.454;6.718;2023-08-01T02:36:35;15.90;99.90
20560;DHT22;10438;51.454;6.718;2023-08-01T02:39:01;15.90;99.90
20560;DHT22;10438;51.454;6.718;2023-08-01T02:41:26;15.90;99.90
20560;DHT22;10438;51.454;6.718;2023-08-01T02:43:52;15.90;99.90
20560;DHT22;10438;51.454;6.718;2023-08-01T02:46:18;15.90;99.90
20560;DHT22;10438;51.454;6.718;2023-08-01T02:48:43;15.90;99.90
20560;DHT22;10438;51.454;6.718;2023-08-01T02:51:08;15.90;99.90
20560;DHT22;10438;51.454;6.718;2023-08-01T02:53:35;15.90;99.90
20560;DHT22;10438;51.454;6.718;2023-08-01T02:56:01;15.90;99.90
20560;DHT22;10438;51.454;6.718;2023-08-01T02:58:26;15.90;99.90
20560;DHT22;10438;51.454;6.718;2023-08-01T03:00:52;15.80;99.90
20560;DHT22;10438;51.454;6.718;2023-08-01T03:03:18;15.90;99.90
20560;DHT22;10438;51.454;6.718;2023-08-01T03:05:43;15.90;99.90
20560;DHT22;10438;51.454;6.718;2023-08-01T03:08:09;15.80;99.90
20560;DHT22;10438;51.454;6.718;2023-08-01T03:10:34;15.70;99.90
20560;DHT22;10438;51.454;6.718;2023-08-01T03:13:00;15.70;99.90
20560;DHT22;10438;51.454;6.718;2023-08-01T03:15:26;15.60;99.90
20560;DHT22;10438;51.454;6.718;2023-08-01T03:17:52;15.60;99.90
20560;DHT22;10438;51.454;6.718;2023-08-01T03:20:17;15.60;99.90
20560;DHT22;10438;51.454;6.718;2023-08-01T03:22:43;15.50;99.90
20560;DHT22;10438;51.454;6.718;2023-08-01T03:25:08;15.50;99.90
20560;DHT22;10438;51.454;6.718;2023-08-01T03:27:34;15.50;99.90
20560;DHT22;10438;51.454;6.718;2023-08-01T03:30:00;15.50;99.90
20560;DHT22;10438;51.454;6.718;2023-08-01T03:32:26;15.40;99.90
20560;DHT22;10438;51.454;6.718;2023-08-01T03:34:52;15.40;99.90
20560;DHT22;10438;51.454;6.718;2023-08-01T03:37:17;15.40;99.90
20560;DHT22;10438;51.454;6.718;2023-08-01T03:39:43;15.40;99.90
20560;DHT22;10438;51.454;6.718;2023-08-01T03:42:09;15.40;99.90
20560;DHT22;10438;51.454;6.718;2023-08-01T03:44:35;15.40;99.90
20560;DHT22;10438;51.454;6.718;2023-08-01T03:47:00;15.40;99.90
20560;DHT22;10438;51.454;6.718;2023-08-01T03:49:26;15.40;99.90
20560;DHT22;10438;51.454;6.718;2023-08-01T03:51:51;15.40;99.90
20560;DHT22;10438;51.454;6.718;2023-08-01T03:54:17;15.40;99.90
20560;DHT22;10438;51.454;6.718;2023-08-01T03:56:42;15.40;99.90
20560;DHT22;10438;51.454;6.718;2023-08-01T03:59:13;15.40;99.90
20560;DHT22;10438;51.454;6.718;2023-08-01T04:01:39;15.40;99.90
20560;DHT22;10438;51.454;6.718;2023-08-01T04:04:05;15.40;99.90
20560;DHT22;10438;51.454;6.718;2023-08-01T04:06:30;15.40;99.90
20560;DHT22;10438;51.454;6.718;2023-08-01T04:08:56;15.40;99.90
20560;DHT22;10438;51.454;6.718;2023-08-01T04:11:22;15.40;99.90
20560;DHT22;10438;51.454;6.718;2023-08-01T04:13:48;15.40;99.90
20560;DHT22;10438;51.454;6.718;2023-08-01T04:16:13;15.40;99.90
20560;DHT22;10438;51.454;6.718;2023-08-01T04:18:39;15.40;99.90
20560;DHT22;10438;51.454;6.718;2023-08-01T04:21:04;15.40;99.90
20560;DHT22;10438;51.454;6.718;2023-08-01T04:23:30;15.40;99.90
20560;DHT22;10438;51.454;6.718;2023-08-01T04:25:55;15.40;99.90
20560;DHT22;10438;51.454;6.718;2023-08-01T04:28:21;15.40;99.90
20560;DHT22;10438;51.454;6.718;2023-08-01T04:30:50;15.40;99.90
20560;DHT22;10438;51.454;6.718;2023-08-01T04:33:16;15.40;99.90
20560;DHT22;10438;51.454;6.718;2023-08-01T04:35:41;15.40;99.90
20560;DHT22;10438;51.454;6.718;2023-08-01T04:38:07;15.40;99.90
20560;DHT22;10438;51.454;6.718;2023-08-01T04:40:34;15.40;99.90
20560;DHT22;10438;51.454;6.718;2023-08-01T04:43:01;15.40;99.90
20560;DHT22;10438;51.454;6.718;2023-08-01T04:45:27;15.40;99.90
20560;DHT22;10438;51.454;6.718;2023-08-01T04:47:52;15.50;99.90
20560;DHT22;10438;51.454;6.718;2023-08-01T04:50:18;15.40;99.90
20560;DHT22;10438;51.454;6.718;2023-08-01T04:52:44;15.50;99.90
20560;DHT22;10438;51.454;6.718;2023-08-01T04:55:09;15.50;99.90
20560;DHT22;10438;51.454;6.718;2023-08-01T04:57:35;15.50;99.90
20560;DHT22;10438;51.454;6.718;2023-08-01T05:00:00;15.50;99.90
20560;DHT22;10438;51.454;6.718;2023-08-01T05:02:26;15.50;99.90
20560;DHT22;10438;51.454;6.718;2023-08-01T05:04:51;15.60;99.90
20560;DHT22;10438;51.454;6.718;2023-08-01T05:07:17;15.50;99.90
20560;DHT22;10438;51.454;6.718;2023-08-01T05:09:42;15.50;99.90
20560;DHT22;10438;51.454;6.718;2023-08-01T05:12:08;15.50;99.90
20560;DHT22;10438;51.454;6.718;2023-08-01T05:14:34;15.50;99.90
20560;DHT22;10438;51.454;6.718;2023-08-01T05:17:00;15.50;99.90
20560;DHT22;10438;51.454;6.718;2023-08-01T05:19:25;15.50;99.90
20560;DHT22;10438;51.454;6.718;2023-08-01T05:21:51;15.50;99.90
20560;DHT22;10438;51.454;6.718;2023-08-01T05:24:16;15.60;99.90
20560;DHT22;10438;51.454;6.718;2023-08-01T05:26:42;15.60;99.90
20560;DHT22;10438;51.454;6.718;2023-08-01T05:29:07;15.60;99.90
20560;DHT22;10438;51.454;6.718;2023-08-01T05:31:33;15.60;99.90
20560;DHT22;10438;51.454;6.718;2023-08-01T05:33:58;15.70;99.90
20560;DHT22;10438;51.454;6.718;2023-08-01T05:36:24;15.60;99.90
20560;DHT22;10438;51.454;6.718;2023-08-01T05:38:50;15.60;99.90
20560;DHT22;10438;51.454;6.718;2023-08-01T05:41:15;15.60;99.90
20560;DHT22;10438;51.454;6.718;2023-08-01T05:43:41;15.70;99.90
20560;DHT22;10438;51.454;6.718;2023-08-01T05:46:06;15.60;99.90
20560;DHT22;10438;51.454;6.718;2023-08-01T05:48:32;15.60;99.90
20560;DHT22;10438;51.454;6.718;2023-08-01T05:50:57;15.70;99.90
20560;DHT22;10438;51.454;6.718;2023-08-01T05:53:23;15.70;99.90
20560;DHT22;10438;51.454;6.718;2023-08-01T05:55:49;15.70;99.90
20560;DHT22;10438;51.454;6.718;2023-08-01T05:58:15;15.70;99.90
20560;DHT22;10438;51.454;6.718;2023-08-01T06:00:41;15.70;99.90
20560;DHT22;10438;51.454;6.718;2023-08-01T06:03:06;15.70;99.90
20560;DHT22;10438;51.454;6.718;2023-08-01T06:05:32;15.80;99.90
20560;DHT22;10438;51.454;6.718;2023-08-01T06:07:57;15.80;99.90
20560;DHT22;10438;51.454;6.718;2023-08-01T06:10:23;15.90;99.90
20560;DHT22;10438;51.454;6.718;2023-08-01T06:12:48;15.90;99.90
20560;DHT22;10438;51.454;6.718;2023-08-01T06:15:14;15.90;99.90
20560;DHT22;10438;51.454;6.718;2023-08-01T06:17:40;15.90;99.90
20560;DHT22;10438;51.454;6.718;2023-08-01T06:20:06;15.90;99.90
20560;DHT22;10438;51.454;6.718;2023-08-01T06:22:31;15.90;99.90
20560;DHT22;10438;51.454;6.718;2023-08-01T06:24:57;16.00;99.90
20560;DHT22;10438;51.454;6.718;2023-08-01T06:27:23;16.00;99.90
20560;DHT22;10438;51.454;6.718;2023-08-01T06:29:49;16.00;99.90
20560;DHT22;10438;51.454;6.718;2023-08-01T06:32:14;15.90;99.90
20560;DHT22;10438;51.454;6.718;2023-08-01T06:34:40;16.00;99.90
20560;DHT22;10438;51.454;6.718;2023-08-01T06:37:05;15.90;99.90
20560;DHT22;10438;51.454;6.718;2023-08-01T06:39:31;16.00;99.90
20560;DHT22;10438;51.454;6.718;2023-08-01T06:41:56;16.00;99.90
20560;DHT22;10438;51.454;6.718;2023-08-01T06:44:22;16.00;99.90
20560;DHT22;10438;51.454;6.718;2023-08-01T06:46:47;16.00;99.90
20560;DHT22;10438;51.454;6.718;2023-08-01T06:49:13;16.10;99.90
20560;DHT22;10438;51.454;6.718;2023-08-01T06:51:38;16.20;99.90
20560;DHT22;10438;51.454;6.718;2023-08-01T06:54:04;16.30;99.90
20560;DHT22;10438;51.454;6.718;2023-08-01T06:56:29;16.40;99.90
20560;DHT22;10438;51.454;6.718;2023-08-01T06:58:55;16.40;99.90
20560;DHT22;10438;51.454;6.718;2023-08-01T07:01:20;16.50;99.90
20560;DHT22;10438;51.454;6.718;2023-08-01T07:03:47;16.40;99.90
20560;DHT22;10438;51.454;6.718;2023-08-01T07:06:13;16.50;99.90
20560;DHT22;10438;51.454;6.718;2023-08-01T07:08:38;16.60;99.90
20560;DHT22;10438;51.454;6.718;2023-08-01T07:11:04;16.60;99.90
20560;DHT22;10438;51.454;6.718;2023-08-01T07:13:30;16.60;99.90
20560;DHT22;10438;51.454;6.718;2023-08-01T07:15:55;16.60;99.90
20560;DHT22;10438;51.454;6.718;2023-08-01T07:18:21;16.60;99.90
20560;DHT22;10438;51.454;6.718;2023-08-01T07:20:46;16.60;99.90
20560;DHT22;10438;51.454;6.718;2023-08-01T07:23:12;16.60;99.90
20560;DHT22;10438;51.454;6.718;2023-08-01T07:25:37;16.60;99.90
20560;DHT22;10438;51.454;6.718;2023-08-01T07:28:03;16.50;99.90
20560;DHT22;10438;51.454;6.718;2023-08-01T07:30:29;16.50;99.90
20560;DHT22;10438;51.454;6.718;2023-08-01T07:32:54;16.50;99.90
20560;DHT22;10438;51.454;6.718;2023-08-01T07:35:20;16.50;99.90
20560;DHT22;10438;51.454;6.718;2023-08-01T07:37:45;16.50;99.90
20560;DHT22;10438;51.454;6.718;2023-08-01T07:40:11;16.50;99.90
20560;DHT22;10438;51.454;6.718;2023-08-01T07:42:36;16.60;99.90
20560;DHT22;10438;51.454;6.718;2023-08-01T07:45:02;16.60;99.90
20560;DHT22;10438;51.454;6.718;2023-08-01T07:47:28;16.70;99.90
20560;DHT22;10438;51.454;6.718;2023-08-01T07:49:53;16.80;99.90
20560;DHT22;10438;51.454;6.718;2023-08-01T07:52:19;17.00;99.90
20560;DHT22;10438;51.454;6.718;2023-08-01T07:54:44;17.20;99.90
20560;DHT22;10438;51.454;6.718;2023-08-01T07:57:10;17.20;99.90
20560;DHT22;10438;51.454;6.718;2023-08-01T07:59:36;17.30;99.90
20560;DHT22;10438;51.454;6.718;2023-08-01T08:02:02;17.50;99.90
20560;DHT22;10438;51.454;6.718;2023-08-01T08:04:27;17.60;99.90
20560;DHT22;10438;51.454;6.718;2023-08-01T08:06:53;17.60;99.90
20560;DHT22;10438;51.454;6.718;2023-08-01T08:09:20;17.80;99.90
20560;DHT22;10438;51.454;6.718;2023-08-01T08:11:48;17.80;99.90
20560;DHT22;10438;51.454;6.718;2023-08-01T08:14:13;17.80;99.90
20560;DHT22;10438;51.454;6.718;2023-08-01T08:16:40;17.80;99.90
20560;DHT22;10438;51.454;6.718;2023-08-01T08:19:06;17.70;99.90
20560;DHT22;10438;51.454;6.718;2023-08-01T08:21:31;17.50;99.90
20560;DHT22;10438;51.454;6.718;2023-08-01T08:23:57;17.40;99.90
20560;DHT22;10438;51.454;6.718;2023-08-01T08:26:22;17.30;99.90
20560;DHT22;10438;51.454;6.718;2023-08-01T08:28:49;17.20;99.90
20560;DHT22;10438;51.454;6.718;2023-08-01T08:31:14;17.30;99.90
20560;DHT22;10438;51.454;6.718;2023-08-01T08:33:40;17.50;99.90
20560;DHT22;10438;51.454;6.718;2023-08-01T08:36:05;17.50;99.90
20560;DHT22;10438;51.454;6.718;2023-08-01T08:38:31;17.30;99.90
20560;DHT22;10438;51.454;6.718;2023-08-01T08:41:11;17.30;99.90
20560;DHT22;10438;51.454;6.718;2023-08-01T08:43:39;17.30;99.90
20560;DHT22;10438;51.454;6.718;2023-08-01T08:46:08;17.40;99.90
20560;DHT22;10438;51.454;6.718;2023-08-01T08:48:35;17.70;99.90
20560;DHT22;10438;51.454;6.718;2023-08-01T08:51:01;17.60;99.90
20560;DHT22;10438;51.454;6.718;2023-08-01T08:53:29;17.70;99.90
20560;DHT22;10438;51.454;6.718;2023-08-01T08:55:55;17.70;99.90
20560;DHT22;10438;51.454;6.718;2023-08-01T08:58:21;17.90;99.90
20560;DHT22;10438;51.454;6.718;2023-08-01T09:00:47;18.20;99.90
20560;DHT22;10438;51.454;6.718;2023-08-01T09:03:13;18.50;99.90
20560;DHT22;10438;51.454;6.718;2023-08-01T09:05:49;18.60;99.90
20560;DHT22;10438;51.454;6.718;2023-08-01T09:08:19;18.60;99.90
20560;DHT22;10438;51.454;6.718;2023-08-01T09:10:46;18.80;99.90
20560;DHT22;10438;51.454;6.718;2023-08-01T09:13:12;19.00;99.90
20560;DHT22;10438;51.454;6.718;2023-08-01T09:15:40;19.10;99.90
20560;DHT22;10438;51.454;6.718;2023-08-01T09:18:08;19.20;99.90
20560;DHT22;10438;51.454;6.718;2023-08-01T09:20:44;19.20;99.90
20560;DHT22;10438;51.454;6.718;2023-08-01T09:23:10;19.50;99.90
20560;DHT22;10438;51.454;6.718;2023-08-01T09:25:42;19.70;99.90
20560;DHT22;10438;51.454;6.718;2023-08-01T09:28:21;19.60;99.90
20560;DHT22;10438;51.454;6.718;2023-08-01T09:30:52;19.50;99.90
20560;DHT22;10438;51.454;6.718;2023-08-01T09:33:20;19.70;99.90
20560;DHT22;10438;51.454;6.718;2023-08-01T09:35:45;19.70;99.90
20560;DHT22;10438;51.454;6.718;2023-08-01T09:38:15;19.90;99.90
20560;DHT22;10438;51.454;6.718;2023-08-01T09:40:41;20.20;99.90
20560;DHT22;10438;51.454;6.718;2023-08-01T09:43:07;20.20;99.90
20560;DHT22;10438;51.454;6.718;2023-08-01T09:45:33;20.20;99.90
20560;DHT22;10438;51.454;6.718;2023-08-01T09:48:00;19.90;99.90
20560;DHT22;10438;51.454;6.718;2023-08-01T09:50:26;19.50;99.90
20560;DHT22;10438;51.454;6.718;2023-08-01T09:52:51;19.40;99.90
20560;DHT22;10438;51.454;6.718;2023-08-01T09:55:26;19.50;99.90
20560;DHT22;10438;51.454;6.718;2023-08-01T09:57:55;19.60;99.90
20560;DHT22;10438;51.454;6.718;2023-08-01T10:00:22;19.90;99.90
20560;DHT22;10438;51.454;6.718;2023-08-01T10:02:49;20.20;99.90
20560;DHT22;10438;51.454;6.718;2023-08-01T10:05:15;20.30;99.90
20560;DHT22;10438;51.454;6.718;2023-08-01T10:07:43;20.60;99.90
20560;DHT22;10438;51.454;6.718;2023-08-01T10:10:10;20.80;99.90
20560;DHT22;10438;51.454;6.718;2023-08-01T10:12:36;20.70;99.90
20560;DHT22;10438;51.454;6.718;2023-08-01T10:15:03;20.40;99.90
20560;DHT22;10438;51.454;6.718;2023-08-01T10:17:30;20.20;99.90
20560;DHT22;10438;51.454;6.718;2023-08-01T10:19:56;20.30;99.90
20560;DHT22;10438;51.454;6.718;2023-08-01T10:22:24;20.40;99.90
20560;DHT22;10438;51.454;6.718;2023-08-01T10:24:50;20.40;99.90
20560;DHT22;10438;51.454;6.718;2023-08-01T10:27:21;20.40;99.90
20560;DHT22;10438;51.454;6.718;2023-08-01T10:30:00;20.40;99.90
20560;DHT22;10438;51.454;6.718;2023-08-01T10:32:35;20.30;99.90
20560;DHT22;10438;51.454;6.718;2023-08-01T10:35:01;20.20;99.90
20560;DHT22;10438;51.454;6.718;2023-08-01T10:37:38;20.10;99.90
20560;DHT22;10438;51.454;6.718;2023-08-01T10:40:04;19.80;99.90
20560;DHT22;10438;51.454;6.718;2023-08-01T10:42:43;19.60;99.90
20560;DHT22;10438;51.454;6.718;2023-08-01T10:45:23;19.40;99.90
20560;DHT22;10438;51.454;6.718;2023-08-01T10:47:50;19.10;99.90
20560;DHT22;10438;51.454;6.718;2023-08-01T10:50:16;18.80;99.90
20560;DHT22;10438;51.454;6.718;2023-08-01T10:52:42;18.50;99.90
20560;DHT22;10438;51.454;6.718;2023-08-01T10:55:08;18.20;99.90
20560;DHT22;10438;51.454;6.718;2023-08-01T10:57:39;17.80;99.90
20560;DHT22;10438;51.454;6.718;2023-08-01T11:00:06;17.60;99.90
20560;DHT22;10438;51.454;6.718;2023-08-01T11:02:37;17.40;99.90
20560;DHT22;10438;51.454;6.718;2023-08-01T11:05:07;17.20;99.90
20560;DHT22;10438;51.454;6.718;2023-08-01T11:07:35;17.10;99.90
20560;DHT22;10438;51.454;6.718;2023-08-01T11:10:11;16.80;99.90
20560;DHT22;10438;51.454;6.718;2023-08-01T11:12:41;16.60;99.90
20560;DHT22;10438;51.454;6.718;2023-08-01T11:15:09;16.60;99.90
20560;DHT22;10438;51.454;6.718;2023-08-01T11:17:39;16.90;99.90
20560;DHT22;10438;51.454;6.718;2023-08-01T11:20:06;17.20;99.90
20560;DHT22;10438;51.454;6.718;2023-08-01T11:22:33;17.40;99.90
20560;DHT22;10438;51.454;6.718;2023-08-01T11:24:58;17.50;99.90
20560;DHT22;10438;51.454;6.718;2023-08-01T11:27:25;17.50;99.90
20560;DHT22;10438;51.454;6.718;2023-08-01T11:29:52;17.50;99.90
20560;DHT22;10438;51.454;6.718;2023-08-01T11:32:18;17.60;99.90
20560;DHT22;10438;51.454;6.718;2023-08-01T11:34:45;17.60;99.90
20560;DHT22;10438;51.454;6.718;2023-08-01T11:37:12;17.50;99.90
20560;DHT22;10438;51.454;6.718;2023-08-01T11:39:39;17.70;99.90
20560;DHT22;10438;51.454;6.718;2023-08-01T11:42:05;17.90;99.90
20560;DHT22;10438;51.454;6.718;2023-08-01T11:44:30;17.90;99.90
20560;DHT22;10438;51.454;6.718;2023-08-01T11:46:56;18.00;99.90
20560;DHT22;10438;51.454;6.718;2023-08-01T11:49:22;17.90;99.90
20560;DHT22;10438;51.454;6.718;2023-08-01T11:51:48;17.80;99.90
20560;DHT22;10438;51.454;6.718;2023-08-01T11:54:14;17.80;99.90
20560;DHT22;10438;51.454;6.718;2023-08-01T11:56:40;17.90;99.90
20560;DHT22;10438;51.454;6.718;2023-08-01T11:59:17;17.80;99.90
20560;DHT22;10438;51.454;6.718;2023-08-01T12:01:44;17.80;99.90
20560;DHT22;10438;51.454;6.718;2023-08-01T12:04:10;17.70;99.90
20560;DHT22;10438;51.454;6.718;2023-08-01T12:06:36;17.60;99.90
20560;DHT22;10438;51.454;6.718;2023-08-01T12:09:12;17.80;99.90
20560;DHT22;10438;51.454;6.718;2023-08-01T12:11:38;17.90;99.90
20560;DHT22;10438;51.454;6.718;2023-08-01T12:14:10;18.00;99.90
20560;DHT22;10438;51.454;6.718;2023-08-01T12:16:37;18.00;99.90
20560;DHT22;10438;51.454;6.718;2023-08-01T12:19:03;18.00;99.90
20560;DHT22;10438;51.454;6.718;2023-08-01T12:21:30;17.90;99.90
20560;DHT22;10438;51.454;6.718;2023-08-01T12:23:56;17.90;99.90
20560;DHT22;10438;51.454;6.718;2023-08-01T12:26:22;17.80;99.90
20560;DHT22;10438;51.454;6.718;2023-08-01T12:28:48;17.80;99.90
20560;DHT22;10438;51.454;6.718;2023-08-01T12:31:21;17.80;99.90
20560;DHT22;10438;51.454;6.718;2023-08-01T12:33:47;17.80;99.90
20560;DHT22;10438;51.454;6.718;2023-08-01T12:36:14;17.90;99.90
20560;DHT22;10438;51.454;6.718;2023-08-01T12:38:39;18.10;99.90
20560;DHT22;10438;51.454;6.718;2023-08-01T12:41:06;18.40;99.90
20560;DHT22;10438;51.454;6.718;2023-08-01T12:43:31;19.00;99.90
20560;DHT22;10438;51.454;6.718;2023-08-01T12:45:57;19.60;99.90
20560;DHT22;10438;51.454;6.718;2023-08-01T12:48:24;20.20;99.90
20560;DHT22;10438;51.454;6.718;2023-08-01T12:50:49;20.60;99.90
20560;DHT22;10438;51.454;6.718;2023-08-01T12:53:15;20.70;99.90
20560;DHT22;10438;51.454;6.718;2023-08-01T12:55:43;20.90;99.90
20560;DHT22;10438;51.454;6.718;2023-08-01T12:58:10;21.00;99.90
20560;DHT22;10438;51.454;6.718;2023-08-01T13:00:35;21.40;99.90
20560;DHT22;10438;51.454;6.718;2023-08-01T13:03:01;21.70;99.90
20560;DHT22;10438;51.454;6.718;2023-08-01T13:05:26;21.70;99.90
20560;DHT22;10438;51.454;6.718;2023-08-01T13:07:52;21.40;99.90
20560;DHT22;10438;51.454;6.718;2023-08-01T13:10:18;20.80;99.90
20560;DHT22;10438;51.454;6.718;2023-08-01T13:12:43;20.50;99.90
20560;DHT22;10438;51.454;6.718;2023-08-01T13:15:09;20.10;99.90
20560;DHT22;10438;51.454;6.718;2023-08-01T13:17:35;19.90;99.90
20560;DHT22;10438;51.454;6.718;2023-08-01T13:20:00;19.90;99.90
20560;DHT22;10438;51.454;6.718;2023-08-01T13:22:26;19.80;99.90
20560;DHT22;10438;51.454;6.718;2023-08-01T13:24:51;19.80;99.90
20560;DHT22;10438;51.454;6.718;2023-08-01T13:27:17;19.70;99.90
20560;DHT22;10438;51.454;6.718;2023-08-01T13:29:42;19.70;99.90
20560;DHT22;10438;51.454;6.718;2023-08-01T13:32:08;19.70;99.90
20560;DHT22;10438;51.454;6.718;2023-08-01T13:34:33;19.70;99.90
20560;DHT22;10438;51.454;6.718;2023-08-01T13:36:59;19.90;99.90
20560;DHT22;10438;51.454;6.718;2023-08-01T13:39:24;20.80;99.90
20560;DHT22;10438;51.454;6.718;2023-08-01T13:41:50;21.70;99.90
20560;DHT22;10438;51.454;6.718;2023-08-01T13:44:16;22.70;99.90
20560;DHT22;10438;51.454;6.718;2023-08-01T13:46:41;23.30;99.90
20560;DHT22;10438;51.454;6.718;2023-08-01T13:49:07;23.30;99.90
20560;DHT22;10438;51.454;6.718;2023-08-01T13:51:33;23.20;99.90
20560;DHT22;10438;51.454;6.718;2023-08-01T13:53:59;22.90;99.90
20560;DHT22;10438;51.454;6.718;2023-08-01T13:56:25;23.10;99.90
20560;DHT22;10438;51.454;6.718;2023-08-01T13:58:51;23.30;99.90
20560;DHT22;10438;51.454;6.718;2023-08-01T14:01:17;23.70;99.90
20560;DHT22;10438;51.454;6.718;2023-08-01T14:03:44;23.70;99.90
20560;DHT22;10438;51.454;6.718;2023-08-01T14:06:12;24.40;99.90
20560;DHT22;10438;51.454;6.718;2023-08-01T14:08:39;24.40;99.90
20560;DHT22;10438;51.454;6.718;2023-08-01T14:11:06;24.70;97.10
20560;DHT22;10438;51.454;6.718;2023-08-01T14:13:32;24.50;98.30
20560;DHT22;10438;51.454;6.718;2023-08-01T14:15:58;23.70;96.00
20560;DHT22;10438;51.454;6.718;2023-08-01T14:18:23;23.00;99.90
20560;DHT22;10438;51.454;6.718;2023-08-01T14:20:49;22.80;99.90
20560;DHT22;10438;51.454;6.718;2023-08-01T14:23:15;23.30;99.90
20560;DHT22;10438;51.454;6.718;2023-08-01T14:25:40;23.80;99.90
20560;DHT22;10438;51.454;6.718;2023-08-01T14:28:06;23.70;99.90
20560;DHT22;10438;51.454;6.718;2023-08-01T14:30:32;23.50;99.90
20560;DHT22;10438;51.454;6.718;2023-08-01T14:33:02;23.10;99.90
20560;DHT22;10438;51.454;6.718;2023-08-01T14:35:27;22.70;99.90
20560;DHT22;10438;51.454;6.718;2023-08-01T14:37:53;22.30;99.90
20560;DHT22;10438;51.454;6.718;2023-08-01T14:40:23;21.90;99.90
20560;DHT22;10438;51.454;6.718;2023-08-01T14:42:49;21.70;99.90
20560;DHT22;10438;51.454;6.718;2023-08-01T14:45:15;21.40;99.90
20560;DHT22;10438;51.454;6.718;2023-08-01T14:47:44;21.40;99.90
20560;DHT22;10438;51.454;6.718;2023-08-01T14:50:14;21.80;99.90
20560;DHT22;10438;51.454;6.718;2023-08-01T14:52:40;22.60;99.90
20560;DHT22;10438;51.454;6.718;2023-08-01T14:55:07;23.30;99.90
20560;DHT22;10438;51.454;6.718;2023-08-01T14:57:33;23.80;97.80
20560;DHT22;10438;51.454;6.718;2023-08-01T14:59:58;23.60;93.50
20560;DHT22;10438;51.454;6.718;2023-08-01T15:02:25;23.50;91.40
20560;DHT22;10438;51.454;6.718;2023-08-01T15:04:51;23.50;96.00
20560;DHT22;10438;51.454;6.718;2023-08-01T15:07:17;23.40;92.10
20560;DHT22;10438;51.454;6.718;2023-08-01T15:09:43;23.80;90.30
20560;DHT22;10438;51.454;6.718;2023-08-01T15:12:09;24.40;78.50
20560;DHT22;10438;51.454;6.718;2023-08-01T15:14:36;25.10;74.50
20560;DHT22;10438;51.454;6.718;2023-08-01T15:17:01;25.30;56.50
20560;DHT22;10438;51.454;6.718;2023-08-01T15:19:27;24.90;61.30
20560;DHT22;10438;51.454;6.718;2023-08-01T15:21:52;24.10;69.70
20560;DHT22;10438;51.454;6.718;2023-08-01T15:24:18;23.80;84.70
20560;DHT22;10438;51.454;6.718;2023-08-01T15:26:43;23.50;86.00
20560;DHT22;10438;51.454;6.718;2023-08-01T15:29:09;23.20;82.70
20560;DHT22;10438;51.454;6.718;2023-08-01T15:31:35;23.10;83.20
20560;DHT22;10438;51.454;6.718;2023-08-01T15:34:01;22.80;80.70
20560;DHT22;10438;51.454;6.718;2023-08-01T15:36:28;22.80;81.50
20560;DHT22;10438;51.454;6.718;2023-08-01T15:38:55;23.10;79.00
20560;DHT22;10438;51.454;6.718;2023-08-01T15:41:21;23.30;67.80